createdAt,value
2018-07-19T00:00:31.683Z,16.78
2018-07-19T00:01:31.705Z,16.36
2018-07-19T00:02:31.702Z,16.17
2018-07-19T00:03:31.729Z,16.13
2018-07-19T00:04:31.744Z,16.16
2018-07-19T00:05:31.769Z,16.41
2018-07-19T00:06:31.798Z,16.41
2018-07-19T00:07:31.808Z,16.50
2018-07-19T00:08:31.834Z,16.42
2018-07-19T00:09:31.848Z,16.46
2018-07-19T00:10:31.861Z,16.41
2018-07-19T00:11:31.889Z,16.36
2018-07-19T00:12:31.920Z,16.20
2018-07-19T00:13:31.926Z,16.17
2018-07-19T00:14:31.949Z,15.94
2018-07-19T00:15:31.973Z,15.75
2018-07-19T00:16:32.014Z,15.68
2018-07-19T00:17:32.006Z,15.36
2018-07-19T00:18:32.024Z,15.28
2018-07-19T00:19:32.044Z,15.19
2018-07-19T00:20:32.068Z,15.33
2018-07-19T00:21:32.082Z,15.40
2018-07-19T00:22:32.106Z,15.22
2018-07-19T00:23:32.126Z,15.49
2018-07-19T00:24:32.152Z,15.80
2018-07-19T00:25:32.167Z,15.59
2018-07-19T00:26:32.190Z,15.47
2018-07-19T00:27:32.217Z,15.39
2018-07-19T00:28:32.227Z,15.18
2018-07-19T00:29:32.243Z,14.96
2018-07-19T00:30:32.263Z,14.88
2018-07-19T00:31:32.284Z,14.94
2018-07-19T00:32:32.302Z,14.79
2018-07-19T00:33:32.320Z,14.85
2018-07-19T00:34:32.340Z,14.89
2018-07-19T00:35:32.366Z,15.17
2018-07-19T00:36:32.383Z,15.02
2018-07-19T00:37:32.400Z,15.17
2018-07-19T00:38:32.421Z,15.10
2018-07-19T00:39:32.458Z,15.03
2018-07-19T00:40:32.458Z,15.02
2018-07-19T00:41:32.483Z,15.11
2018-07-19T00:42:32.503Z,15.14
2018-07-19T00:43:32.523Z,15.29
2018-07-19T00:44:32.542Z,15.42
2018-07-19T00:45:32.559Z,15.39
2018-07-19T00:46:32.576Z,15.43
2018-07-19T00:47:32.597Z,15.40
2018-07-19T00:48:32.618Z,15.18
2018-07-19T00:49:32.638Z,15.21
2018-07-19T00:50:32.671Z,15.25
2018-07-19T00:51:32.695Z,15.10
2018-07-19T00:52:32.694Z,15.15
2018-07-19T00:53:32.719Z,15.00
2018-07-19T00:54:32.736Z,15.02
2018-07-19T00:55:32.754Z,14.89
2018-07-19T00:56:32.768Z,14.91
2018-07-19T00:57:32.799Z,15.19
2018-07-19T00:58:32.810Z,15.51
2018-07-19T00:59:32.874Z,15.52
2018-07-19T01:00:32.927Z,15.42
2018-07-19T01:01:32.871Z,15.42
2018-07-19T01:02:32.893Z,15.42
2018-07-19T01:03:32.915Z,15.35
2018-07-19T01:04:32.929Z,15.19
2018-07-19T01:05:32.950Z,15.14
2018-07-19T01:06:32.965Z,14.89
2018-07-19T01:07:32.995Z,15.14
2018-07-19T01:08:33.003Z,14.91
2018-07-19T01:09:33.019Z,14.72
2018-07-19T01:10:33.047Z,14.89
2018-07-19T01:11:33.059Z,14.50
2018-07-19T01:12:33.093Z,14.81
2018-07-19T01:13:33.101Z,14.54
2018-07-19T01:14:33.119Z,14.63
2018-07-19T01:15:33.143Z,14.43
2018-07-19T01:16:33.160Z,14.32
2018-07-19T01:17:33.182Z,14.22
2018-07-19T01:18:33.210Z,14.45
2018-07-19T01:19:33.221Z,14.11
2018-07-19T01:20:33.237Z,13.95
2018-07-19T01:21:33.255Z,14.10
2018-07-19T01:22:33.278Z,14.26
2018-07-19T01:23:33.296Z,14.28
2018-07-19T01:24:33.315Z,14.41
2018-07-19T01:25:33.332Z,14.48
2018-07-19T01:26:33.356Z,14.66
2018-07-19T01:27:33.377Z,14.77
2018-07-19T01:28:33.391Z,14.92
2018-07-19T01:29:33.407Z,14.92
2018-07-19T01:30:33.432Z,14.82
2018-07-19T01:31:33.449Z,15.11
2018-07-19T01:32:33.475Z,14.94
2018-07-19T01:33:33.487Z,15.02
2018-07-19T01:34:33.528Z,15.10
2018-07-19T01:35:33.533Z,14.89
2018-07-19T01:36:33.545Z,15.03
2018-07-19T01:37:33.567Z,15.06
2018-07-19T01:38:33.578Z,15.28
2018-07-19T01:39:33.602Z,15.35
2018-07-19T01:40:33.627Z,15.29
2018-07-19T01:41:33.643Z,15.22
2018-07-19T01:42:33.654Z,15.44
2018-07-19T01:43:33.675Z,15.35
2018-07-19T01:44:33.708Z,15.43
2018-07-19T01:45:33.723Z,15.21
2018-07-19T01:46:33.739Z,14.91
2018-07-19T01:47:33.763Z,14.79
2018-07-19T01:48:33.781Z,14.54
2018-07-19T01:49:33.794Z,14.30
2018-07-19T01:50:33.815Z,13.95
2018-07-19T01:51:33.841Z,13.72
2018-07-19T01:52:33.855Z,13.86
2018-07-19T01:53:33.870Z,13.90
2018-07-19T01:54:33.901Z,13.75
2018-07-19T01:55:33.915Z,13.74
2018-07-19T01:56:33.938Z,13.85
2018-07-19T01:57:33.943Z,13.62
2018-07-19T01:58:33.969Z,13.63
2018-07-19T01:59:33.989Z,13.78
2018-07-19T02:00:34.011Z,13.74
2018-07-19T02:01:34.019Z,13.86
2018-07-19T02:02:34.051Z,13.83
2018-07-19T02:03:34.066Z,13.77
2018-07-19T02:04:34.087Z,13.62
2018-07-19T02:05:34.097Z,13.62
2018-07-19T02:06:34.140Z,13.56
2018-07-19T02:07:34.137Z,13.41
2018-07-19T02:08:34.173Z,13.38
2018-07-19T02:09:34.196Z,13.37
2018-07-19T02:10:34.196Z,13.33
2018-07-19T02:11:34.232Z,13.25
2018-07-19T02:12:34.232Z,13.22
2018-07-19T02:13:34.258Z,13.28
2018-07-19T02:14:34.283Z,13.23
2018-07-19T02:15:34.301Z,13.27
2018-07-19T02:16:34.309Z,13.28
2018-07-19T02:17:34.335Z,13.28
2018-07-19T02:18:34.354Z,13.23
2018-07-19T02:19:34.381Z,13.33
2018-07-19T02:20:34.392Z,13.25
2018-07-19T02:21:34.399Z,13.30
2018-07-19T02:22:34.422Z,13.20
2018-07-19T02:23:34.442Z,13.20
2018-07-19T02:24:34.460Z,13.27
2018-07-19T02:25:34.489Z,13.16
2018-07-19T02:26:34.500Z,13.15
2018-07-19T02:27:34.516Z,13.20
2018-07-19T02:28:34.537Z,13.18
2018-07-19T02:29:34.557Z,13.23
2018-07-19T02:30:34.602Z,13.16
2018-07-19T02:31:34.604Z,13.11
2018-07-19T02:32:34.619Z,12.94
2018-07-19T02:33:34.636Z,12.90
2018-07-19T02:34:34.650Z,12.87
2018-07-19T02:35:34.698Z,12.93
2018-07-19T02:36:34.693Z,13.08
2018-07-19T02:37:34.704Z,13.12
2018-07-19T02:38:34.729Z,13.25
2018-07-19T02:39:34.746Z,13.22
2018-07-19T02:40:34.765Z,13.52
2018-07-19T02:41:34.784Z,13.63
2018-07-19T02:42:34.801Z,13.86
2018-07-19T02:43:34.825Z,13.89
2018-07-19T02:44:34.859Z,13.89
2018-07-19T02:45:34.853Z,13.81
2018-07-19T02:46:34.877Z,13.74
2018-07-19T02:47:34.899Z,13.53
2018-07-19T02:48:34.912Z,13.54
2018-07-19T02:49:34.934Z,13.54
2018-07-19T02:50:34.980Z,13.49
2018-07-19T02:51:34.976Z,13.28
2018-07-19T02:52:34.990Z,13.35
2018-07-19T02:53:35.008Z,13.18
2018-07-19T02:54:35.026Z,13.23
2018-07-19T02:55:35.052Z,13.11
2018-07-19T02:56:35.062Z,12.93
2018-07-19T02:57:35.100Z,12.68
2018-07-19T02:58:35.110Z,12.62
2018-07-19T02:59:35.130Z,12.58
2018-07-19T03:00:35.192Z,12.54
2018-07-19T03:01:35.162Z,12.46
2018-07-19T03:02:35.176Z,12.39
2018-07-19T03:03:35.192Z,12.42
2018-07-19T03:04:35.231Z,12.29
2018-07-19T03:05:35.241Z,12.29
2018-07-19T03:06:35.306Z,12.29
2018-07-19T03:07:35.311Z,12.43
2018-07-19T03:08:35.303Z,12.62
2018-07-19T03:09:35.320Z,12.64
2018-07-19T03:10:35.333Z,12.75
2018-07-19T03:11:35.359Z,13.18
2018-07-19T03:12:35.367Z,13.37
2018-07-19T03:13:35.394Z,13.38
2018-07-19T03:14:35.402Z,13.27
2018-07-19T03:15:35.420Z,13.08
2018-07-19T03:16:35.443Z,12.94
2018-07-19T03:17:35.458Z,12.98
2018-07-19T03:18:35.480Z,12.93
2018-07-19T03:19:35.496Z,13.12
2018-07-19T03:20:35.515Z,13.12
2018-07-19T03:21:35.532Z,13.12
2018-07-19T03:22:35.563Z,13.23
2018-07-19T03:23:35.573Z,13.12
2018-07-19T03:24:35.589Z,12.93
2018-07-19T03:25:35.613Z,13.05
2018-07-19T03:26:35.627Z,13.03
2018-07-19T03:27:35.658Z,13.08
2018-07-19T03:28:35.663Z,12.97
2018-07-19T03:29:35.692Z,12.97
2018-07-19T03:30:35.702Z,13.05
2018-07-19T03:31:35.724Z,13.23
2018-07-19T03:32:35.742Z,13.54
2018-07-19T03:33:35.757Z,13.79
2018-07-19T03:34:35.773Z,13.93
2018-07-19T03:35:35.794Z,13.99
2018-07-19T03:36:35.827Z,13.97
2018-07-19T03:37:35.878Z,13.89
2018-07-19T03:38:35.873Z,13.72
2018-07-19T03:39:35.869Z,13.57
2018-07-19T03:40:35.884Z,13.49
2018-07-19T03:41:35.947Z,13.30
2018-07-19T03:42:35.925Z,13.46
2018-07-19T03:43:35.946Z,13.35
2018-07-19T03:44:36.010Z,13.18
2018-07-19T03:45:35.982Z,12.94
2018-07-19T03:46:36.002Z,12.85
2018-07-19T03:47:36.021Z,12.83
2018-07-19T03:48:36.041Z,12.67
2018-07-19T03:49:36.063Z,12.55
2018-07-19T03:50:36.100Z,12.62
2018-07-19T03:51:36.090Z,12.67
2018-07-19T03:52:36.110Z,12.61
2018-07-19T03:53:36.130Z,12.85
2018-07-19T03:54:36.150Z,12.85
2018-07-19T03:55:36.174Z,12.83
2018-07-19T03:56:36.187Z,12.73
2018-07-19T03:57:36.203Z,12.80
2018-07-19T03:58:36.228Z,12.67
2018-07-19T03:59:36.249Z,12.62
2018-07-19T04:00:36.263Z,12.73
2018-07-19T04:01:36.281Z,13.08
2018-07-19T04:02:36.324Z,13.13
2018-07-19T04:03:36.329Z,13.09
2018-07-19T04:04:36.337Z,12.97
2018-07-19T04:05:36.374Z,12.87
2018-07-19T04:06:36.374Z,12.80
2018-07-19T04:07:36.397Z,12.82
2018-07-19T04:08:36.419Z,12.87
2018-07-19T04:09:36.436Z,12.98
2018-07-19T04:10:36.477Z,12.97
2018-07-19T04:11:36.466Z,13.09
2018-07-19T04:12:36.495Z,13.16
2018-07-19T04:13:36.506Z,13.27
2018-07-19T04:14:36.549Z,13.13
2018-07-19T04:15:36.546Z,13.12
2018-07-19T04:16:36.562Z,13.23
2018-07-19T04:17:36.581Z,12.87
2018-07-19T04:18:36.603Z,13.12
2018-07-19T04:19:36.624Z,13.18
2018-07-19T04:20:36.634Z,12.94
2018-07-19T04:21:36.661Z,13.00
2018-07-19T04:22:36.674Z,12.95
2018-07-19T04:23:36.704Z,12.85
2018-07-19T04:24:36.745Z,12.97
2018-07-19T04:25:36.739Z,13.11
2018-07-19T04:26:36.754Z,12.94
2018-07-19T04:27:36.786Z,13.01
2018-07-19T04:28:36.791Z,13.35
2018-07-19T04:29:36.807Z,13.83
2018-07-19T04:30:36.858Z,13.97
2018-07-19T04:31:36.851Z,13.92
2018-07-19T04:32:36.863Z,13.71
2018-07-19T04:33:36.881Z,13.77
2018-07-19T04:34:36.904Z,13.83
2018-07-19T04:35:36.922Z,13.99
2018-07-19T04:36:36.942Z,13.83
2018-07-19T04:37:36.966Z,13.74
2018-07-19T04:38:36.980Z,13.72
2018-07-19T04:39:37.000Z,13.86
2018-07-19T04:40:37.023Z,13.81
2018-07-19T04:41:37.044Z,13.86
2018-07-19T04:42:37.059Z,13.83
2018-07-19T04:43:37.099Z,13.97
2018-07-19T04:44:37.111Z,13.99
2018-07-19T04:45:37.111Z,13.95
2018-07-19T04:46:37.131Z,14.04
2018-07-19T04:47:37.155Z,14.05
2018-07-19T04:48:37.168Z,14.00
2018-07-19T04:49:37.192Z,14.14
2018-07-19T04:50:37.217Z,14.23
2018-07-19T04:51:37.225Z,14.37
2018-07-19T04:52:37.243Z,14.45
2018-07-19T04:53:37.271Z,14.48
2018-07-19T04:54:37.316Z,14.50
2018-07-19T04:55:37.308Z,14.51
2018-07-19T04:56:37.346Z,14.62
2018-07-19T04:57:37.345Z,14.63
2018-07-19T04:58:37.363Z,14.66
2018-07-19T04:59:37.386Z,14.79
2018-07-19T05:00:37.411Z,15.14
2018-07-19T05:01:37.454Z,16.00
2018-07-19T05:02:37.444Z,16.75
2018-07-19T05:03:37.466Z,17.36
2018-07-19T05:04:37.487Z,17.97
2018-07-19T05:05:37.502Z,18.52
2018-07-19T05:06:37.580Z,18.75
2018-07-19T05:07:37.553Z,19.15
2018-07-19T05:08:37.573Z,19.59
2018-07-19T05:09:37.597Z,19.99
2018-07-19T05:10:37.621Z,20.31
2018-07-19T05:11:37.653Z,20.40
2018-07-19T05:12:37.692Z,20.32
2018-07-19T05:13:37.689Z,20.25
2018-07-19T05:14:37.710Z,20.72
2018-07-19T05:15:37.732Z,20.70
2018-07-19T05:16:37.758Z,20.85
2018-07-19T05:17:37.781Z,21.50
2018-07-19T05:18:37.806Z,21.70
2018-07-19T05:19:37.833Z,22.02
2018-07-19T05:20:37.863Z,21.76
2018-07-19T05:21:37.881Z,22.11
2018-07-19T05:22:37.909Z,22.32
2018-07-19T05:23:37.935Z,22.29
2018-07-19T05:24:37.961Z,22.54
2018-07-19T05:25:37.985Z,22.76
2018-07-19T05:26:38.009Z,22.87
2018-07-19T05:27:38.037Z,22.87
2018-07-19T05:28:38.069Z,23.06
2018-07-19T05:29:38.089Z,23.78
2018-07-19T05:30:38.108Z,23.34
2018-07-19T05:31:38.151Z,23.23
2018-07-19T05:32:38.167Z,23.43
2018-07-19T05:33:38.193Z,23.24
2018-07-19T05:34:38.288Z,23.15
2018-07-19T05:35:38.246Z,23.27
2018-07-19T05:36:38.272Z,23.10
2018-07-19T05:37:38.303Z,23.40
2018-07-19T05:38:38.330Z,23.50
2018-07-19T05:39:38.357Z,23.68
2018-07-19T05:40:38.442Z,23.55
2018-07-19T05:41:38.410Z,23.87
2018-07-19T05:42:38.439Z,23.74
2018-07-19T05:43:38.465Z,23.80
2018-07-19T05:44:38.488Z,24.17
2018-07-19T05:45:38.521Z,24.33
2018-07-19T05:46:38.544Z,24.78
2018-07-19T05:47:38.576Z,25.17
2018-07-19T05:48:38.609Z,24.93
2018-07-19T05:49:38.634Z,24.95
2018-07-19T05:50:38.666Z,24.78
2018-07-19T05:51:38.688Z,24.98
2018-07-19T05:52:38.719Z,25.06
2018-07-19T05:53:38.768Z,25.85
2018-07-19T05:54:38.776Z,26.26
2018-07-19T05:55:38.799Z,26.80
2018-07-19T05:56:38.825Z,27.77
2018-07-19T05:57:38.855Z,29.08
2018-07-19T05:58:38.881Z,28.42
2018-07-19T05:59:38.920Z,29.38
2018-07-19T06:00:38.950Z,27.89
2018-07-19T06:01:38.976Z,27.21
2018-07-19T06:02:38.994Z,27.36
2018-07-19T06:03:39.028Z,28.69
2018-07-19T06:04:39.062Z,29.51
2018-07-19T06:05:39.082Z,30.10
2018-07-19T06:06:39.114Z,29.65
2018-07-19T06:07:39.151Z,28.37
2018-07-19T06:08:39.193Z,28.23
2018-07-19T06:09:39.228Z,28.14
2018-07-19T06:10:39.240Z,28.00
2018-07-19T06:11:39.267Z,29.50
2018-07-19T06:12:39.302Z,28.48
2018-07-19T06:13:39.319Z,27.54
2018-07-19T06:14:39.345Z,27.52
2018-07-19T06:15:39.378Z,26.80
2018-07-19T06:16:39.410Z,26.92
2018-07-19T06:17:39.437Z,26.99
2018-07-19T06:18:39.528Z,26.97
2018-07-19T06:19:39.507Z,28.11
2018-07-19T06:20:39.545Z,29.56
2018-07-19T06:21:39.561Z,29.65
2018-07-19T06:22:39.586Z,29.84
2018-07-19T06:23:39.617Z,30.43
2018-07-19T06:24:39.654Z,30.68
2018-07-19T06:25:39.680Z,28.93
2018-07-19T06:26:39.702Z,27.71
2018-07-19T06:27:39.735Z,28.56
2018-07-19T06:28:39.766Z,30.09
2018-07-19T06:29:39.794Z,30.12
2018-07-19T06:30:39.843Z,28.79
2018-07-19T06:31:39.869Z,28.91
2018-07-19T06:32:39.894Z,27.98
2018-07-19T06:33:39.920Z,27.87
2018-07-19T06:34:39.943Z,28.89
2018-07-19T06:35:39.976Z,30.73
2018-07-19T06:36:40.008Z,31.22
2018-07-19T06:37:40.043Z,29.78
2018-07-19T06:38:40.071Z,29.97
2018-07-19T06:39:40.108Z,32.11
2018-07-19T06:40:40.132Z,31.84
2018-07-19T06:41:40.161Z,30.19
2018-07-19T06:42:40.191Z,29.90
2018-07-19T06:43:40.221Z,29.66
2018-07-19T06:44:40.255Z,29.72
2018-07-19T06:45:40.288Z,30.55
2018-07-19T06:46:40.324Z,30.96
2018-07-19T06:47:40.343Z,30.80
2018-07-19T06:48:40.398Z,30.55
2018-07-19T06:49:40.399Z,31.17
2018-07-19T06:50:40.437Z,31.44
2018-07-19T06:51:40.464Z,32.07
2018-07-19T06:52:40.494Z,32.18
2018-07-19T06:53:40.526Z,32.75
2018-07-19T06:54:40.556Z,33.04
2018-07-19T06:55:40.589Z,33.62
2018-07-19T06:56:40.618Z,34.05
2018-07-19T06:57:40.654Z,34.32
2018-07-19T06:58:40.685Z,33.36
2018-07-19T06:59:40.720Z,33.62
2018-07-19T07:00:40.750Z,32.52
2018-07-19T07:01:40.768Z,31.12
2018-07-19T07:02:40.807Z,32.18
2018-07-19T07:03:40.873Z,33.15
2018-07-19T07:04:40.864Z,33.09
2018-07-19T07:05:40.909Z,31.22
2018-07-19T07:06:40.929Z,31.39
2018-07-19T07:07:40.966Z,31.07
2018-07-19T07:08:41.009Z,30.53
2018-07-19T07:09:41.018Z,30.68
2018-07-19T07:10:41.060Z,31.15
2018-07-19T07:11:41.085Z,30.69
2018-07-19T07:12:41.120Z,30.85
2018-07-19T07:13:41.146Z,31.22
2018-07-19T07:14:41.176Z,30.92
2018-07-19T07:15:41.208Z,30.68
2018-07-19T07:16:41.242Z,31.05
2018-07-19T07:17:41.273Z,30.84
2018-07-19T07:18:41.305Z,31.21
2018-07-19T07:19:41.335Z,30.99
2018-07-19T07:20:41.360Z,30.99
2018-07-19T07:21:41.402Z,31.66
2018-07-19T07:22:41.423Z,32.08
2018-07-19T07:23:41.456Z,31.54
2018-07-19T07:24:41.484Z,30.77
2018-07-19T07:25:41.523Z,31.27
2018-07-19T07:26:41.552Z,31.07
2018-07-19T07:27:41.585Z,30.77
2018-07-19T07:28:41.616Z,31.31
2018-07-19T07:29:41.678Z,31.66
2018-07-19T07:30:41.699Z,31.33
2018-07-19T07:31:41.729Z,31.28
2018-07-19T07:32:41.739Z,30.63
2018-07-19T07:33:41.765Z,31.03
2018-07-19T07:34:41.797Z,30.78
2018-07-19T07:35:41.832Z,31.20
2018-07-19T07:36:41.867Z,30.39
2018-07-19T07:37:41.908Z,30.77
2018-07-19T07:38:41.931Z,31.09
2018-07-19T07:39:41.946Z,31.77
2018-07-19T07:40:41.980Z,31.55
2018-07-19T07:41:42.016Z,31.37
2018-07-19T07:42:42.051Z,31.15
2018-07-19T07:43:42.074Z,30.81
2018-07-19T07:44:42.106Z,30.81
2018-07-19T07:45:42.130Z,30.80
2018-07-19T07:46:42.165Z,30.85
2018-07-19T07:47:42.197Z,31.09
2018-07-19T07:48:42.225Z,30.39
2018-07-19T07:49:42.263Z,30.84
2018-07-19T07:50:42.292Z,33.14
2018-07-19T07:51:42.322Z,34.27
2018-07-19T07:52:42.340Z,35.26
2018-07-19T07:53:42.377Z,33.14
2018-07-19T07:54:42.398Z,32.31
2018-07-19T07:55:42.444Z,31.52
2018-07-19T07:56:42.478Z,31.55
2018-07-19T07:57:42.494Z,32.04
2018-07-19T07:58:42.524Z,31.56
2018-07-19T07:59:42.560Z,31.58
2018-07-19T08:00:42.584Z,32.12
2018-07-19T08:01:42.616Z,32.19
2018-07-19T08:02:42.648Z,33.11
2018-07-19T08:03:42.676Z,32.71
2018-07-19T08:04:42.712Z,33.28
2018-07-19T08:05:42.730Z,34.16
2018-07-19T08:06:42.770Z,35.55
2018-07-19T08:07:42.800Z,35.37
2018-07-19T08:08:42.827Z,35.46
2018-07-19T08:09:42.858Z,35.44
2018-07-19T08:10:42.898Z,36.07
2018-07-19T08:11:42.912Z,36.95
2018-07-19T08:12:42.954Z,35.31
2018-07-19T08:13:42.975Z,35.64
2018-07-19T08:14:43.013Z,33.69
2018-07-19T08:15:43.058Z,33.08
2018-07-19T08:16:43.067Z,33.23
2018-07-19T08:17:43.094Z,34.38
2018-07-19T08:18:43.122Z,35.10
2018-07-19T08:19:43.168Z,35.55
2018-07-19T08:20:43.192Z,34.61
2018-07-19T08:21:43.243Z,34.86
2018-07-19T08:22:43.253Z,33.90
2018-07-19T08:23:43.293Z,32.65
2018-07-19T08:24:43.318Z,33.43
2018-07-19T08:25:43.336Z,34.77
2018-07-19T08:26:43.371Z,35.60
2018-07-19T08:27:43.395Z,36.23
2018-07-19T08:28:43.441Z,35.02
2018-07-19T08:29:43.458Z,34.27
2018-07-19T08:30:43.487Z,34.29
2018-07-19T08:31:43.521Z,35.31
2018-07-19T08:32:43.544Z,34.13
2018-07-19T08:33:43.562Z,33.74
2018-07-19T08:34:43.604Z,34.51
2018-07-19T08:35:43.642Z,35.92
2018-07-19T08:36:43.663Z,35.83
2018-07-19T08:37:43.679Z,36.17
2018-07-19T08:38:43.719Z,36.00
2018-07-19T08:39:43.737Z,34.73
2018-07-19T08:40:43.768Z,34.02
2018-07-19T08:41:43.825Z,33.00
2018-07-19T08:42:43.818Z,32.18
2018-07-19T08:43:43.847Z,31.34
2018-07-19T08:44:43.876Z,30.34
2018-07-19T08:45:43.898Z,30.70
2018-07-19T08:46:43.933Z,31.15
2018-07-19T08:47:43.956Z,31.10
2018-07-19T08:48:43.978Z,30.28
2018-07-19T08:49:44.002Z,30.81
2018-07-19T08:50:44.041Z,30.91
2018-07-19T08:51:44.162Z,30.92
2018-07-19T08:52:44.082Z,30.25
2018-07-19T08:53:44.109Z,29.59
2018-07-19T08:54:44.140Z,29.27
2018-07-19T08:55:44.164Z,29.29
2018-07-19T08:56:44.243Z,30.08
2018-07-19T08:57:44.219Z,29.94
2018-07-19T08:58:44.256Z,30.09
2018-07-19T08:59:44.263Z,29.08
2018-07-19T09:00:44.295Z,28.38
2018-07-19T09:01:44.310Z,28.75
2018-07-19T09:02:44.343Z,29.24
2018-07-19T09:03:44.391Z,28.11
2018-07-19T09:04:44.406Z,28.26
2018-07-19T09:05:44.418Z,28.15
2018-07-19T09:06:44.440Z,27.59
2018-07-19T09:07:44.480Z,28.23
2018-07-19T09:08:44.525Z,28.10
2018-07-19T09:09:44.516Z,28.01
2018-07-19T09:10:44.541Z,28.39
2018-07-19T09:11:44.569Z,28.85
2018-07-19T09:12:44.588Z,29.10
2018-07-19T09:13:44.616Z,29.36
2018-07-19T09:14:44.642Z,29.01
2018-07-19T09:15:44.664Z,29.29
2018-07-19T09:16:44.700Z,29.20
2018-07-19T09:17:44.716Z,28.79
2018-07-19T09:18:44.749Z,28.23
2018-07-19T09:19:44.816Z,28.22
2018-07-19T09:20:44.815Z,28.42
2018-07-19T09:21:44.810Z,28.75
2018-07-19T09:22:44.847Z,28.25
2018-07-19T09:23:44.861Z,28.15
2018-07-19T09:24:44.884Z,27.68
2018-07-19T09:25:44.918Z,27.44
2018-07-19T09:26:44.932Z,27.37
2018-07-19T09:27:44.967Z,27.52
2018-07-19T09:28:44.984Z,27.59
2018-07-19T09:29:45.011Z,28.10
2018-07-19T09:30:45.037Z,28.62
2018-07-19T09:31:45.056Z,28.51
2018-07-19T09:32:45.114Z,27.80
2018-07-19T09:33:45.111Z,27.70
2018-07-19T09:34:45.137Z,28.19
2018-07-19T09:35:45.157Z,27.85
2018-07-19T09:36:45.180Z,28.10
2018-07-19T09:37:45.200Z,27.95
2018-07-19T09:38:45.235Z,28.11
2018-07-19T09:39:45.259Z,27.80
2018-07-19T09:40:45.274Z,27.58
2018-07-19T09:41:45.346Z,27.49
2018-07-19T09:42:45.345Z,27.52
2018-07-19T09:43:45.352Z,27.90
2018-07-19T09:44:45.385Z,28.02
2018-07-19T09:45:45.406Z,28.11
2018-07-19T09:46:45.416Z,27.70
2018-07-19T09:47:45.456Z,27.87
2018-07-19T09:48:45.522Z,27.65
2018-07-19T09:49:45.497Z,27.55
2018-07-19T09:50:45.517Z,27.52
2018-07-19T09:51:45.540Z,27.47
2018-07-19T09:52:45.585Z,27.49
2018-07-19T09:53:45.602Z,27.85
2018-07-19T09:54:45.632Z,28.29
2018-07-19T09:55:45.644Z,28.07
2018-07-19T09:56:45.678Z,28.49
2018-07-19T09:57:45.685Z,28.54
2018-07-19T09:58:45.709Z,28.52
2018-07-19T09:59:45.731Z,28.14
2018-07-19T10:00:45.764Z,27.48
2018-07-19T10:01:45.817Z,27.35
2018-07-19T10:02:45.808Z,27.87
2018-07-19T10:03:45.828Z,28.17
2018-07-19T10:04:45.875Z,28.62
2018-07-19T10:05:45.944Z,28.74
2018-07-19T10:06:45.916Z,28.75
2018-07-19T10:07:45.978Z,28.22
2018-07-19T10:08:45.958Z,28.17
2018-07-19T10:09:45.996Z,28.44
2018-07-19T10:10:46.002Z,28.62
2018-07-19T10:11:46.028Z,28.23
2018-07-19T10:12:46.052Z,28.30
2018-07-19T10:13:46.164Z,28.70
2018-07-19T10:14:46.100Z,28.85
2018-07-19T10:15:46.119Z,28.86
2018-07-19T10:16:46.151Z,28.42
2018-07-19T10:17:46.192Z,28.57
2018-07-19T10:18:46.192Z,28.93
2018-07-19T10:19:46.225Z,28.60
2018-07-19T10:20:46.253Z,28.70
2018-07-19T10:21:46.281Z,29.34
2018-07-19T10:22:46.290Z,29.08
2018-07-19T10:23:46.312Z,29.08
2018-07-19T10:24:46.342Z,29.24
2018-07-19T10:25:46.369Z,29.24
2018-07-19T10:26:46.415Z,29.36
2018-07-19T10:27:46.427Z,29.65
2018-07-19T10:28:46.444Z,29.65
2018-07-19T10:29:46.469Z,29.57
2018-07-19T10:30:46.492Z,30.13
2018-07-19T10:31:46.521Z,30.10
2018-07-19T10:32:46.562Z,30.69
2018-07-19T10:33:46.566Z,30.16
2018-07-19T10:34:46.593Z,30.63
2018-07-19T10:35:46.610Z,30.40
2018-07-19T10:36:46.646Z,30.08
2018-07-19T10:37:46.673Z,29.78
2018-07-19T10:38:46.688Z,30.18
2018-07-19T10:39:46.727Z,29.51
2018-07-19T10:40:46.735Z,28.86
2018-07-19T10:41:46.768Z,28.79
2018-07-19T10:42:46.786Z,28.41
2018-07-19T10:43:46.822Z,28.63
2018-07-19T10:44:46.829Z,28.39
2018-07-19T10:45:46.861Z,28.12
2018-07-19T10:46:46.883Z,27.68
2018-07-19T10:47:46.913Z,27.95
2018-07-19T10:48:46.935Z,28.63
2018-07-19T10:49:46.959Z,28.93
2018-07-19T10:50:46.982Z,29.01
2018-07-19T10:51:47.048Z,28.93
2018-07-19T10:52:47.039Z,28.23
2018-07-19T10:53:47.051Z,28.29
2018-07-19T10:54:47.098Z,28.56
2018-07-19T10:55:47.103Z,28.20
2018-07-19T10:56:47.125Z,28.11
2018-07-19T10:57:47.152Z,28.39
2018-07-19T10:58:47.196Z,28.57
2018-07-19T10:59:47.211Z,28.59
2018-07-19T11:00:47.226Z,28.75
2018-07-19T11:01:47.258Z,28.33
2018-07-19T11:02:47.285Z,28.47
2018-07-19T11:03:47.325Z,28.72
2018-07-19T11:04:47.329Z,28.75
2018-07-19T11:05:47.355Z,28.96
2018-07-19T11:06:47.370Z,29.26
2018-07-19T11:07:47.395Z,29.05
2018-07-19T11:08:47.418Z,29.04
2018-07-19T11:09:47.472Z,29.29
2018-07-19T11:10:47.466Z,29.57
2018-07-19T11:11:47.496Z,28.96
2018-07-19T11:12:47.531Z,29.04
2018-07-19T11:13:47.540Z,29.45
2018-07-19T11:14:47.568Z,29.39
2018-07-19T11:15:47.587Z,29.69
2018-07-19T11:16:47.616Z,29.87
2018-07-19T11:17:47.651Z,29.76
2018-07-19T11:18:47.664Z,29.63
2018-07-19T11:19:47.696Z,29.75
2018-07-19T11:20:47.720Z,30.21
2018-07-19T11:21:47.744Z,29.94
2018-07-19T11:22:47.778Z,30.25
2018-07-19T11:23:47.795Z,30.30
2018-07-19T11:24:47.810Z,30.10
2018-07-19T11:25:47.835Z,29.24
2018-07-19T11:26:47.859Z,29.23
2018-07-19T11:27:47.908Z,28.88
2018-07-19T11:28:47.922Z,28.89
2018-07-19T11:29:47.938Z,29.19
2018-07-19T11:30:47.967Z,29.78
2018-07-19T11:31:47.996Z,29.26
2018-07-19T11:32:48.012Z,29.53
2018-07-19T11:33:48.041Z,29.60
2018-07-19T11:34:48.054Z,29.65
2018-07-19T11:35:48.081Z,29.90
2018-07-19T11:36:48.123Z,30.09
2018-07-19T11:37:48.146Z,29.93
2018-07-19T11:38:48.163Z,29.60
2018-07-19T11:39:48.181Z,29.86
2018-07-19T11:40:48.205Z,29.07
2018-07-19T11:41:48.232Z,29.26
2018-07-19T11:42:48.263Z,29.04
2018-07-19T11:43:48.280Z,29.14
2018-07-19T11:44:48.308Z,29.19
2018-07-19T11:45:48.332Z,28.96
2018-07-19T11:46:48.357Z,28.89
2018-07-19T11:47:48.387Z,28.91
2018-07-19T11:48:48.419Z,28.89
2018-07-19T11:49:48.464Z,29.27
2018-07-19T11:50:48.461Z,29.20
2018-07-19T11:51:48.478Z,29.41
2018-07-19T11:52:48.511Z,29.49
2018-07-19T11:53:48.536Z,29.72
2018-07-19T11:54:48.575Z,29.57
2018-07-19T11:55:48.605Z,29.71
2018-07-19T11:56:48.606Z,29.87
2018-07-19T11:57:48.628Z,29.56
2018-07-19T11:58:48.655Z,29.31
2018-07-19T11:59:48.700Z,29.01
2018-07-19T12:00:48.740Z,29.07
2018-07-19T12:01:48.741Z,29.50
2018-07-19T12:02:48.755Z,29.08
2018-07-19T12:03:48.776Z,29.29
2018-07-19T12:04:48.800Z,29.51
2018-07-19T12:05:48.823Z,29.59
2018-07-19T12:06:48.856Z,29.53
2018-07-19T12:07:48.877Z,30.18
2018-07-19T12:08:48.905Z,29.93
2018-07-19T12:09:48.940Z,29.81
2018-07-19T12:10:48.945Z,29.86
2018-07-19T12:11:48.968Z,29.56
2018-07-19T12:12:49.004Z,29.97
2018-07-19T12:13:49.025Z,29.31
2018-07-19T12:14:49.045Z,29.05
2018-07-19T12:15:49.070Z,29.57
2018-07-19T12:16:49.103Z,29.88
2018-07-19T12:17:49.118Z,29.91
2018-07-19T12:18:49.159Z,29.66
2018-07-19T12:19:49.170Z,29.27
2018-07-19T12:20:49.191Z,28.98
2018-07-19T12:21:49.223Z,29.14
2018-07-19T12:22:49.261Z,29.12
2018-07-19T12:23:49.266Z,28.78
2018-07-19T12:24:49.295Z,28.93
2018-07-19T12:25:49.318Z,28.72
2018-07-19T12:26:49.340Z,28.76
2018-07-19T12:27:49.367Z,28.76
2018-07-19T12:28:49.390Z,28.93
2018-07-19T12:29:49.415Z,28.88
2018-07-19T12:30:49.451Z,28.86
2018-07-19T12:31:49.464Z,29.12
2018-07-19T12:32:49.490Z,29.51
2018-07-19T12:33:49.516Z,29.57
2018-07-19T12:34:49.550Z,29.51
2018-07-19T12:35:49.579Z,29.59
2018-07-19T12:36:49.597Z,29.04
2018-07-19T12:37:49.612Z,29.50
2018-07-19T12:38:49.638Z,29.61
2018-07-19T12:39:49.659Z,28.75
2018-07-19T12:40:49.694Z,29.17
2018-07-19T12:41:49.706Z,29.35
2018-07-19T12:42:49.736Z,29.66
2018-07-19T12:43:49.766Z,29.60
2018-07-19T12:44:49.782Z,30.06
2018-07-19T12:45:49.813Z,29.73
2018-07-19T12:46:49.842Z,29.71
2018-07-19T12:47:49.870Z,29.90
2018-07-19T12:48:49.901Z,29.31
2018-07-19T12:49:49.922Z,29.01
2018-07-19T12:50:49.939Z,28.67
2018-07-19T12:51:49.958Z,28.49
2018-07-19T12:52:49.986Z,28.62